sensor_id;sensor_type;location;lat;lon;timestamp;temperature;humidity
23713;DHT22;12035;49.978;8.298;2023-07-13T00:01:07;25.90;36.30
23713;DHT22;12035;49.978;8.298;2023-07-13T00:06:04;25.90;36.30
23713;DHT22;12035;49.978;8.298;2023-07-13T00:11:03;25.80;36.30
23713;DHT22;12035;49.978;8.298;2023-07-13T00:16:04;25.80;36.30
23713;DHT22;12035;49.978;8.298;2023-07-13T00:21:01;25.80;36.40
23713;DHT22;12035;49.978;8.298;2023-07-13T00:26:01;25.80;36.40
23713;DHT22;12035;49.978;8.298;2023-07-13T00:30:58;25.80;36.50
23713;DHT22;12035;49.978;8.298;2023-07-13T00:35:57;25.70;36.50
23713;DHT22;12035;49.978;8.298;2023-07-13T00:40:54;25.70;36.70
23713;DHT22;12035;49.978;8.298;2023-07-13T00:46:17;25.70;36.70
23713;DHT22;12035;49.978;8.298;2023-07-13T00:51:24;25.60;36.90
23713;DHT22;12035;49.978;8.298;2023-07-13T00:56:24;25.70;36.90
23713;DHT22;12035;49.978;8.298;2023-07-13T01:01:21;25.60;36.80
23713;DHT22;12035;49.978;8.298;2023-07-13T01:06:20;25.60;36.90
23713;DHT22;12035;49.978;8.298;2023-07-13T01:11:19;25.60;37.10
23713;DHT22;12035;49.978;8.298;2023-07-13T01:16:23;25.50;37.20
23713;DHT22;12035;49.978;8.298;2023-07-13T01:21:23;25.40;37.40
23713;DHT22;12035;49.978;8.298;2023-07-13T01:26:20;25.40;37.50
23713;DHT22;12035;49.978;8.298;2023-07-13T01:31:17;25.30;37.50
23713;DHT22;12035;49.978;8.298;2023-07-13T01:36:14;25.10;37.60
23713;DHT22;12035;49.978;8.298;2023-07-13T01:41:12;25.00;37.90
23713;DHT22;12035;49.978;8.298;2023-07-13T01:46:09;24.90;38.10
23713;DHT22;12035;49.978;8.298;2023-07-13T01:51:06;24.80;38.80
23713;DHT22;12035;49.978;8.298;2023-07-13T01:56:04;24.70;38.40
23713;DHT22;12035;49.978;8.298;2023-07-13T02:01:02;24.70;38.60
23713;DHT22;12035;49.978;8.298;2023-07-13T02:05:59;24.60;38.80
23713;DHT22;12035;49.978;8.298;2023-07-13T02:10:56;24.50;38.80
23713;DHT22;12035;49.978;8.298;2023-07-13T02:15:53;24.30;38.90
23713;DHT22;12035;49.978;8.298;2023-07-13T02:20:52;24.20;39.00
23713;DHT22;12035;49.978;8.298;2023-07-13T02:25:49;24.00;39.30
23713;DHT22;12035;49.978;8.298;2023-07-13T02:30:51;23.90;39.40
23713;DHT22;12035;49.978;8.298;2023-07-13T02:35:48;23.90;39.60
23713;DHT22;12035;49.978;8.298;2023-07-13T02:40:47;23.80;39.60
23713;DHT22;12035;49.978;8.298;2023-07-13T02:45:44;23.80;39.80
23713;DHT22;12035;49.978;8.298;2023-07-13T02:50:42;23.70;39.70
23713;DHT22;12035;49.978;8.298;2023-07-13T02:55:41;23.60;39.70
23713;DHT22;12035;49.978;8.298;2023-07-13T03:00:45;23.50;39.90
23713;DHT22;12035;49.978;8.298;2023-07-13T03:05:43;23.40;39.90
23713;DHT22;12035;49.978;8.298;2023-07-13T03:10:45;23.40;39.90
23713;DHT22;12035;49.978;8.298;2023-07-13T03:15:44;23.40;40.00
23713;DHT22;12035;49.978;8.298;2023-07-13T03:20:45;23.30;40.00
23713;DHT22;12035;49.978;8.298;2023-07-13T03:25:42;23.20;40.10
23713;DHT22;12035;49.978;8.298;2023-07-13T03:30:40;23.20;40.20
23713;DHT22;12035;49.978;8.298;2023-07-13T03:35:41;23.20;40.30
23713;DHT22;12035;49.978;8.298;2023-07-13T03:40:38;23.10;40.40
23713;DHT22;12035;49.978;8.298;2023-07-13T03:45:37;23.10;40.40
23713;DHT22;12035;49.978;8.298;2023-07-13T03:50:34;23.00;40.50
23713;DHT22;12035;49.978;8.298;2023-07-13T03:55:33;23.00;40.50
23713;DHT22;12035;49.978;8.298;2023-07-13T04:00:30;23.00;40.70
23713;DHT22;12035;49.978;8.298;2023-07-13T04:05:27;23.10;40.70
23713;DHT22;12035;49.978;8.298;2023-07-13T04:10:24;23.20;40.90
23713;DHT22;12035;49.978;8.298;2023-07-13T04:15:22;23.40;41.00
23713;DHT22;12035;49.978;8.298;2023-07-13T04:20:19;23.60;41.00
23713;DHT22;12035;49.978;8.298;2023-07-13T04:25:17;23.90;40.90
23713;DHT22;12035;49.978;8.298;2023-07-13T04:30:14;24.20;40.80
23713;DHT22;12035;49.978;8.298;2023-07-13T04:35:12;24.70;40.70
23713;DHT22;12035;49.978;8.298;2023-07-13T04:40:10;25.10;40.30
23713;DHT22;12035;49.978;8.298;2023-07-13T04:45:08;25.50;40.50
23713;DHT22;12035;49.978;8.298;2023-07-13T04:50:06;25.90;39.60
23713;DHT22;12035;49.978;8.298;2023-07-13T04:55:06;26.30;39.50
23713;DHT22;12035;49.978;8.298;2023-07-13T05:00:05;26.90;39.20
23713;DHT22;12035;49.978;8.298;2023-07-13T05:05:03;27.40;38.90
23713;DHT22;12035;49.978;8.298;2023-07-13T05:10:01;28.00;38.40
23713;DHT22;12035;49.978;8.298;2023-07-13T05:15:01;28.60;37.90
23713;DHT22;12035;49.978;8.298;2023-07-13T05:19:58;29.00;37.20
23713;DHT22;12035;49.978;8.298;2023-07-13T05:24:56;29.60;36.60
23713;DHT22;12035;49.978;8.298;2023-07-13T05:29:53;30.10;36.00
23713;DHT22;12035;49.978;8.298;2023-07-13T05:34:51;30.80;35.40
23713;DHT22;12035;49.978;8.298;2023-07-13T05:39:48;31.50;34.40
23713;DHT22;12035;49.978;8.298;2023-07-13T05:44:45;32.10;33.70
23713;DHT22;12035;49.978;8.298;2023-07-13T05:49:42;32.70;33.20
23713;DHT22;12035;49.978;8.298;2023-07-13T05:54:41;33.30;31.90
23713;DHT22;12035;49.978;8.298;2023-07-13T05:59:38;34.00;30.90
23713;DHT22;12035;49.978;8.298;2023-07-13T06:04:35;34.50;30.30
23713;DHT22;12035;49.978;8.298;2023-07-13T06:09:32;35.00;29.70
23713;DHT22;12035;49.978;8.298;2023-07-13T06:14:30;35.30;28.90
23713;DHT22;12035;49.978;8.298;2023-07-13T06:19:28;35.50;29.00
23713;DHT22;12035;49.978;8.298;2023-07-13T06:24:26;35.70;28.60
23713;DHT22;12035;49.978;8.298;2023-07-13T06:29:23;36.00;28.70
23713;DHT22;12035;49.978;8.298;2023-07-13T06:34:21;36.50;28.40
23713;DHT22;12035;49.978;8.298;2023-07-13T06:39:18;37.00;28.30
23713;DHT22;12035;49.978;8.298;2023-07-13T06:44:15;37.50;27.60
23713;DHT22;12035;49.978;8.298;2023-07-13T06:49:12;37.90;27.30
23713;DHT22;12035;49.978;8.298;2023-07-13T06:54:10;38.20;27.20
23713;DHT22;12035;49.978;8.298;2023-07-13T06:59:07;38.50;26.20
23713;DHT22;12035;49.978;8.298;2023-07-13T07:04:05;38.40;25.60
23713;DHT22;12035;49.978;8.298;2023-07-13T07:09:02;38.20;25.70
23713;DHT22;12035;49.978;8.298;2023-07-13T07:14:00;38.00;26.30
23713;DHT22;12035;49.978;8.298;2023-07-13T07:18:57;37.90;26.30
23713;DHT22;12035;49.978;8.298;2023-07-13T07:23:54;37.90;26.10
23713;DHT22;12035;49.978;8.298;2023-07-13T07:28:51;37.90;26.10
23713;DHT22;12035;49.978;8.298;2023-07-13T07:33:49;38.00;26.10
23713;DHT22;12035;49.978;8.298;2023-07-13T07:38:46;38.20;26.10
23713;DHT22;12035;49.978;8.298;2023-07-13T07:43:43;38.40;26.00
23713;DHT22;12035;49.978;8.298;2023-07-13T07:48:40;38.70;25.90
23713;DHT22;12035;49.978;8.298;2023-07-13T07:53:39;38.80;25.50
23713;DHT22;12035;49.978;8.298;2023-07-13T07:58:36;38.90;24.90
23713;DHT22;12035;49.978;8.298;2023-07-13T08:03:33;38.70;24.60
23713;DHT22;12035;49.978;8.298;2023-07-13T08:08:30;38.30;24.80
23713;DHT22;12035;49.978;8.298;2023-07-13T08:13:28;38.00;25.00
23713;DHT22;12035;49.978;8.298;2023-07-13T08:18:25;37.70;25.00
23713;DHT22;12035;49.978;8.298;2023-07-13T08:23:24;37.50;25.20
23713;DHT22;12035;49.978;8.298;2023-07-13T08:28:22;37.20;24.80
23713;DHT22;12035;49.978;8.298;2023-07-13T08:33:21;36.70;24.40
23713;DHT22;12035;49.978;8.298;2023-07-13T08:38:20;36.10;24.80
23713;DHT22;12035;49.978;8.298;2023-07-13T08:43:23;35.70;25.40
23713;DHT22;12035;49.978;8.298;2023-07-13T08:48:27;35.50;25.20
23713;DHT22;12035;49.978;8.298;2023-07-13T08:53:31;35.30;25.90
23713;DHT22;12035;49.978;8.298;2023-07-13T08:58:31;35.10;25.50
23713;DHT22;12035;49.978;8.298;2023-07-13T09:03:37;35.10;25.50
23713;DHT22;12035;49.978;8.298;2023-07-13T09:08:48;34.90;25.30
23713;DHT22;12035;49.978;8.298;2023-07-13T09:14:00;34.70;25.20
23713;DHT22;12035;49.978;8.298;2023-07-13T09:19:04;34.50;25.70
23713;DHT22;12035;49.978;8.298;2023-07-13T09:24:22;34.50;25.70
23713;DHT22;12035;49.978;8.298;2023-07-13T09:29:29;34.40;25.30
23713;DHT22;12035;49.978;8.298;2023-07-13T09:34:30;34.30;25.40
23713;DHT22;12035;49.978;8.298;2023-07-13T09:39:30;34.20;25.40
23713;DHT22;12035;49.978;8.298;2023-07-13T09:44:34;34.00;25.50
23713;DHT22;12035;49.978;8.298;2023-07-13T09:49:35;33.60;25.50
23713;DHT22;12035;49.978;8.298;2023-07-13T09:54:34;33.40;26.00
23713;DHT22;12035;49.978;8.298;2023-07-13T09:59:33;33.20;26.10
23713;DHT22;12035;49.978;8.298;2023-07-13T10:04:34;33.10;26.20
23713;DHT22;12035;49.978;8.298;2023-07-13T10:09:31;32.90;26.40
23713;DHT22;12035;49.978;8.298;2023-07-13T10:14:29;32.90;27.20
23713;DHT22;12035;49.978;8.298;2023-07-13T10:19:27;32.90;26.80
23713;DHT22;12035;49.978;8.298;2023-07-13T10:24:31;32.90;26.50
23713;DHT22;12035;49.978;8.298;2023-07-13T10:29:29;32.80;26.40
23713;DHT22;12035;49.978;8.298;2023-07-13T10:34:31;32.60;26.50
23713;DHT22;12035;49.978;8.298;2023-07-13T10:39:30;32.50;26.70
23713;DHT22;12035;49.978;8.298;2023-07-13T10:44:30;32.40;26.90
23713;DHT22;12035;49.978;8.298;2023-07-13T10:49:29;32.40;26.70
23713;DHT22;12035;49.978;8.298;2023-07-13T10:54:32;32.50;26.70
23713;DHT22;12035;49.978;8.298;2023-07-13T10:59:29;32.40;26.70
23713;DHT22;12035;49.978;8.298;2023-07-13T11:04:28;32.40;26.70
23713;DHT22;12035;49.978;8.298;2023-07-13T11:09:39;32.30;26.70
23713;DHT22;12035;49.978;8.298;2023-07-13T11:14:43;32.30;26.90
23713;DHT22;12035;49.978;8.298;2023-07-13T11:20:32;32.30;26.60
23713;DHT22;12035;49.978;8.298;2023-07-13T11:25:34;32.30;26.80
23713;DHT22;12035;49.978;8.298;2023-07-13T11:30:36;32.30;26.80
23713;DHT22;12035;49.978;8.298;2023-07-13T11:35:37;32.30;26.60
23713;DHT22;12035;49.978;8.298;2023-07-13T11:40:38;32.30;26.50
23713;DHT22;12035;49.978;8.298;2023-07-13T11:45:35;32.30;26.20
23713;DHT22;12035;49.978;8.298;2023-07-13T11:50:33;32.20;26.40
23713;DHT22;12035;49.978;8.298;2023-07-13T11:55:39;32.10;26.40
23713;DHT22;12035;49.978;8.298;2023-07-13T12:00:37;31.90;26.60
23713;DHT22;12035;49.978;8.298;2023-07-13T12:05:36;31.70;26.70
23713;DHT22;12035;49.978;8.298;2023-07-13T12:10:33;31.70;26.90
23713;DHT22;12035;49.978;8.298;2023-07-13T12:15:37;31.60;27.10
23713;DHT22;12035;49.978;8.298;2023-07-13T12:20:38;31.60;27.10
23713;DHT22;12035;49.978;8.298;2023-07-13T12:25:35;31.60;27.20
23713;DHT22;12035;49.978;8.298;2023-07-13T12:30:34;31.50;27.20
23713;DHT22;12035;49.978;8.298;2023-07-13T12:35:31;31.50;27.30
23713;DHT22;12035;49.978;8.298;2023-07-13T12:40:33;31.40;27.30
23713;DHT22;12035;49.978;8.298;2023-07-13T12:45:34;31.40;27.30
23713;DHT22;12035;49.978;8.298;2023-07-13T12:50:37;31.40;27.30
23713;DHT22;12035;49.978;8.298;2023-07-13T12:55:40;31.50;27.50
23713;DHT22;12035;49.978;8.298;2023-07-13T13:00:39;31.50;27.50
23713;DHT22;12035;49.978;8.298;2023-07-13T13:05:36;31.40;27.40
23713;DHT22;12035;49.978;8.298;2023-07-13T13:10:33;31.30;27.30
23713;DHT22;12035;49.978;8.298;2023-07-13T13:15:31;31.20;27.60
23713;DHT22;12035;49.978;8.298;2023-07-13T13:20:30;31.10;27.80
23713;DHT22;12035;49.978;8.298;2023-07-13T13:25:27;31.10;27.80
23713;DHT22;12035;49.978;8.298;2023-07-13T13:30:25;31.00;27.70
23713;DHT22;12035;49.978;8.298;2023-07-13T13:35:22;31.00;28.20
23713;DHT22;12035;49.978;8.298;2023-07-13T13:40:22;30.90;27.90
23713;DHT22;12035;49.978;8.298;2023-07-13T13:45:19;30.80;28.00
23713;DHT22;12035;49.978;8.298;2023-07-13T13:50:20;30.80;28.00
23713;DHT22;12035;49.978;8.298;2023-07-13T13:55:20;30.60;27.90
23713;DHT22;12035;49.978;8.298;2023-07-13T14:00:20;30.60;28.00
23713;DHT22;12035;49.978;8.298;2023-07-13T14:05:22;30.60;28.10
23713;DHT22;12035;49.978;8.298;2023-07-13T14:10:23;30.70;28.20
23713;DHT22;12035;49.978;8.298;2023-07-13T14:15:21;30.80;28.10
23713;DHT22;12035;49.978;8.298;2023-07-13T14:20:20;30.90;27.70
23713;DHT22;12035;49.978;8.298;2023-07-13T14:25:21;31.00;28.10
23713;DHT22;12035;49.978;8.298;2023-07-13T14:30:21;31.00;28.20
23713;DHT22;12035;49.978;8.298;2023-07-13T14:35:21;30.80;28.10
23713;DHT22;12035;49.978;8.298;2023-07-13T14:40:24;30.80;28.10
23713;DHT22;12035;49.978;8.298;2023-07-13T14:45:24;30.70;28.20
23713;DHT22;12035;49.978;8.298;2023-07-13T14:50:26;30.60;28.30
23713;DHT22;12035;49.978;8.298;2023-07-13T14:55:28;30.50;28.40
23713;DHT22;12035;49.978;8.298;2023-07-13T15:00:25;30.40;28.50
23713;DHT22;12035;49.978;8.298;2023-07-13T15:05:25;30.30;28.50
23713;DHT22;12035;49.978;8.298;2023-07-13T15:10:27;30.30;28.50
23713;DHT22;12035;49.978;8.298;2023-07-13T15:15:27;30.30;28.60
23713;DHT22;12035;49.978;8.298;2023-07-13T15:20:27;30.30;28.70
23713;DHT22;12035;49.978;8.298;2023-07-13T15:25:27;30.30;28.70
23713;DHT22;12035;49.978;8.298;2023-07-13T15:30:29;30.40;28.70
23713;DHT22;12035;49.978;8.298;2023-07-13T15:35:27;30.40;28.60
23713;DHT22;12035;49.978;8.298;2023-07-13T15:40:24;30.50;28.60
23713;DHT22;12035;49.978;8.298;2023-07-13T15:45:23;30.50;28.50
23713;DHT22;12035;49.978;8.298;2023-07-13T15:50:22;30.60;28.40
23713;DHT22;12035;49.978;8.298;2023-07-13T15:55:20;30.60;28.40
23713;DHT22;12035;49.978;8.298;2023-07-13T16:00:20;30.50;28.30
23713;DHT22;12035;49.978;8.298;2023-07-13T16:05:23;30.50;28.40
23713;DHT22;12035;49.978;8.298;2023-07-13T16:10:25;30.40;28.50
23713;DHT22;12035;49.978;8.298;2023-07-13T16:15:28;30.40;28.60
23713;DHT22;12035;49.978;8.298;2023-07-13T16:20:26;30.40;28.50
23713;DHT22;12035;49.978;8.298;2023-07-13T16:25:24;30.40;28.50
23713;DHT22;12035;49.978;8.298;2023-07-13T16:30:25;30.40;28.60
23713;DHT22;12035;49.978;8.298;2023-07-13T16:35:27;30.40;28.40
23713;DHT22;12035;49.978;8.298;2023-07-13T16:40:29;30.50;28.30
23713;DHT22;12035;49.978;8.298;2023-07-13T16:45:29;30.50;28.20
23713;DHT22;12035;49.978;8.298;2023-07-13T16:50:33;30.30;28.20
23713;DHT22;12035;49.978;8.298;2023-07-13T16:55:30;30.20;28.20
23713;DHT22;12035;49.978;8.298;2023-07-13T17:00:30;30.10;28.20
23713;DHT22;12035;49.978;8.298;2023-07-13T17:05:32;30.00;28.20
23713;DHT22;12035;49.978;8.298;2023-07-13T17:10:31;30.00;28.30
23713;DHT22;12035;49.978;8.298;2023-07-13T17:15:29;30.00;28.30
23713;DHT22;12035;49.978;8.298;2023-07-13T17:20:32;30.00;28.30
23713;DHT22;12035;49.978;8.298;2023-07-13T17:25:37;30.00;28.20
23713;DHT22;12035;49.978;8.298;2023-07-13T17:30:36;30.00;28.20
23713;DHT22;12035;49.978;8.298;2023-07-13T17:35:36;29.90;28.30
23713;DHT22;12035;49.978;8.298;2023-07-13T17:40:34;29.80;28.30
23713;DHT22;12035;49.978;8.298;2023-07-13T17:45:31;29.80;28.30
23713;DHT22;12035;49.978;8.298;2023-07-13T17:50:30;29.80;28.30
23713;DHT22;12035;49.978;8.298;2023-07-13T17:55:32;29.80;28.40
23713;DHT22;12035;49.978;8.298;2023-07-13T18:00:32;29.70;28.40
23713;DHT22;12035;49.978;8.298;2023-07-13T18:05:33;29.70;28.50
23713;DHT22;12035;49.978;8.298;2023-07-13T18:10:33;29.50;29.00
23713;DHT22;12035;49.978;8.298;2023-07-13T18:15:37;29.40;28.80
23713;DHT22;12035;49.978;8.298;2023-07-13T18:20:34;29.20;28.80
23713;DHT22;12035;49.978;8.298;2023-07-13T18:25:34;29.10;28.90
23713;DHT22;12035;49.978;8.298;2023-07-13T18:30:31;29.00;29.00
23713;DHT22;12035;49.978;8.298;2023-07-13T18:35:30;29.00;29.20
23713;DHT22;12035;49.978;8.298;2023-07-13T18:40:28;28.90;29.10
23713;DHT22;12035;49.978;8.298;2023-07-13T18:45:27;28.90;29.20
23713;DHT22;12035;49.978;8.298;2023-07-13T18:50:28;28.90;29.30
23713;DHT22;12035;49.978;8.298;2023-07-13T18:55:26;28.90;29.30
23713;DHT22;12035;49.978;8.298;2023-07-13T19:00:25;28.90;29.30
23713;DHT22;12035;49.978;8.298;2023-07-13T19:05:25;28.80;29.40
23713;DHT22;12035;49.978;8.298;2023-07-13T19:10:25;28.80;29.50
23713;DHT22;12035;49.978;8.298;2023-07-13T19:15:27;28.80;29.70
23713;DHT22;12035;49.978;8.298;2023-07-13T19:20:27;28.70;29.70
23713;DHT22;12035;49.978;8.298;2023-07-13T19:25:25;28.70;29.80
23713;DHT22;12035;49.978;8.298;2023-07-13T19:30:23;28.70;29.80
23713;DHT22;12035;49.978;8.298;2023-07-13T19:35:22;28.70;29.90
23713;DHT22;12035;49.978;8.298;2023-07-13T19:40:23;28.60;30.00
23713;DHT22;12035;49.978;8.298;2023-07-13T19:45:24;28.60;30.00
23713;DHT22;12035;49.978;8.298;2023-07-13T19:50:22;28.50;30.00
23713;DHT22;12035;49.978;8.298;2023-07-13T19:55:20;28.50;30.20
23713;DHT22;12035;49.978;8.298;2023-07-13T20:00:21;28.40;30.90
23713;DHT22;12035;49.978;8.298;2023-07-13T20:05:22;28.40;30.40
23713;DHT22;12035;49.978;8.298;2023-07-13T20:10:23;28.30;30.50
23713;DHT22;12035;49.978;8.298;2023-07-13T20:15:22;28.30;30.80
23713;DHT22;12035;49.978;8.298;2023-07-13T20:20:29;28.20;30.90
23713;DHT22;12035;49.978;8.298;2023-07-13T20:25:29;28.00;31.20
23713;DHT22;12035;49.978;8.298;2023-07-13T20:30:29;28.00;31.20
23713;DHT22;12035;49.978;8.298;2023-07-13T20:35:31;27.90;31.30
23713;DHT22;12035;49.978;8.298;2023-07-13T20:40:32;27.80;31.60
23713;DHT22;12035;49.978;8.298;2023-07-13T20:45:33;27.70;31.60
23713;DHT22;12035;49.978;8.298;2023-07-13T20:50:32;27.60;31.70
23713;DHT22;12035;49.978;8.298;2023-07-13T20:55:30;27.60;32.00
23713;DHT22;12035;49.978;8.298;2023-07-13T21:00:28;27.50;32.10
23713;DHT22;12035;49.978;8.298;2023-07-13T21:05:33;27.40;32.20
23713;DHT22;12035;49.978;8.298;2023-07-13T21:10:32;27.30;32.50
23713;DHT22;12035;49.978;8.298;2023-07-13T21:15:32;27.30;32.50
23713;DHT22;12035;49.978;8.298;2023-07-13T21:20:33;27.20;32.50
23713;DHT22;12035;49.978;8.298;2023-07-13T21:25:32;27.20;32.80
23713;DHT22;12035;49.978;8.298;2023-07-13T21:30:32;27.10;32.70
23713;DHT22;12035;49.978;8.298;2023-07-13T21:35:35;27.10;32.80
23713;DHT22;12035;49.978;8.298;2023-07-13T21:40:35;27.00;33.00
23713;DHT22;12035;49.978;8.298;2023-07-13T21:45:32;27.00;33.00
23713;DHT22;12035;49.978;8.298;2023-07-13T21:50:36;26.90;33.10
23713;DHT22;12035;49.978;8.298;2023-07-13T21:55:34;26.80;33.50
23713;DHT22;12035;49.978;8.298;2023-07-13T22:00:31;26.80;33.20
23713;DHT22;12035;49.978;8.298;2023-07-13T22:05:28;26.70;33.30
23713;DHT22;12035;49.978;8.298;2023-07-13T22:10:27;26.60;33.40
23713;DHT22;12035;49.978;8.298;2023-07-13T22:15:24;26.50;33.60
23713;DHT22;12035;49.978;8.298;2023-07-13T22:20:23;26.40;33.70
23713;DHT22;12035;49.978;8.298;2023-07-13T22:25:22;26.40;33.80
23713;DHT22;12035;49.978;8.298;2023-07-13T22:30:20;26.30;33.90
23713;DHT22;12035;49.978;8.298;2023-07-13T22:35:17;26.20;34.20
23713;DHT22;12035;49.978;8.298;2023-07-13T22:40:15;26.20;34.10
23713;DHT22;12035;49.978;8.298;2023-07-13T22:45:12;26.10;34.40
23713;DHT22;12035;49.978;8.298;2023-07-13T22:50:14;26.10;34.30
23713;DHT22;12035;49.978;8.298;2023-07-13T22:55:13;26.10;34.80
23713;DHT22;12035;49.978;8.298;2023-07-13T23:00:18;26.00;34.80
23713;DHT22;12035;49.978;8.298;2023-07-13T23:05:17;25.90;35.20
23713;DHT22;12035;49.978;8.298;2023-07-13T23:10:15;25.90;35.10
23713;DHT22;12035;49.978;8.298;2023-07-13T23:15:14;25.80;35.20
23713;DHT22;12035;49.978;8.298;2023-07-13T23:20:22;25.80;35.30
23713;DHT22;12035;49.978;8.298;2023-07-13T23:25:20;25.70;35.60
23713;DHT22;12035;49.978;8.298;2023-07-13T23:30:20;25.70;35.60
23713;DHT22;12035;49.978;8.298;2023-07-13T23:35:20;25.60;35.80
23713;DHT22;12035;49.978;8.298;2023-07-13T23:40:19;25.60;35.90
23713;DHT22;12035;49.978;8.298;2023-07-13T23:45:20;25.60;36.00
23713;DHT22;12035;49.978;8.298;2023-07-13T23:50:22;25.60;36.00
23713;DHT22;12035;49.978;8.298;2023-07-13T23:55:23;25.50;36.10
